Angora, Minnesota
Current Conditions -  °F | °C
As of 5:34 PM on Monday 20 Oct 2014 (Local Time) from KCQM Reporting Station
Overcast Overcast  
Wind Chill: 46°   Ceiling: 2800
Heat Index: 46°   Visibility: 10mi
Dew Point: 36°   Wind: 3mph
Humidity: 66%   Direction: 10°N
Pressure: 30.06"   Gusts: NA
Location:  47.77°N, 92.63°W
Report Text: KCQM 202234Z AUTO 01003KT 10SM OVC028 08/02 A3006 RMK AO2
Loading
Personal Weather Stations






























Interactive Weather Map
Tropical Storm Tracking
New forecast layout! Learn more

10-Day Weather Forecast

Advertisements
Track Severe Weather on mobile